EST,Max TemperatureF,Mean TemperatureF,Min TemperatureF,Max Dew PointF,MeanDew PointF,Min DewpointF,Max Humidity, Mean Humidity, Min Humidity, Max Sea Level PressureIn, Mean Sea Level PressureIn, Min Sea Level PressureIn, Max VisibilityMiles, Mean VisibilityMiles, Min VisibilityMiles, Max Wind SpeedMPH, Mean Wind SpeedMPH, Max Gust SpeedMPH,PrecipitationIn, CloudCover, Events, WindDirDegrees
2012-11-1,44,40,37,37,36,34,93,86,76,29.66,29.56,29.47,10,10,6,15,11,25,0.04,8,Rain,265
2012-11-2,37,34,32,34,30,27,93,84,70,29.90,29.71,29.62,10,7,1,17,11,28,0.09,8,Rain-Snow,295
2012-11-3,37,34,32,29,28,25,87,80,70,30.09,29.98,29.84,10,8,2,18,13,28,0.00,8,Rain-Snow,316
2012-11-4,33,30,28,27,25,22,93,80,69,30.12,30.06,30.01,10,8,1,14,8,18,0.01,8,Snow,329
2012-11-5,32,30,28,23,21,19,75,69,60,30.20,30.13,30.07,10,10,10,9,7,,0.00,8,,333
2012-11-6,37,31,25,19,18,17,72,63,48,30.20,30.13,30.05,10,10,10,10,4,16,0.00,4,,125
2012-11-7,37,29,21,23,18,14,85,67,38,30.10,30.06,29.99,10,10,10,9,3,,0.00,1,,33
2012-11-8,41,34,26,24,21,17,85,69,40,30.14,30.09,30.01,10,10,10,15,10,24,0.00,3,,327
2012-11-9,48,38,28,33,30,25,86,73,54,30.23,30.18,30.06,10,10,8,15,8,21,0.00,6,,285
2012-11-10,53,45,37,42,38,31,89,78,52,30.32,30.26,30.21,10,9,4,10,3,17,0.02,7,Rain,173
2012-11-11,69,60,51,36,34,32,53,41,26,30.37,30.31,30.25,10,10,10,15,10,30,0.00,1,,189
2012-11-12,63,50,35,49,41,33,93,71,45,30.23,30.14,29.99,10,9,2,24,16,36,0.35,4,Rain-Snow,222
2012-11-13,35,32,30,32,25,20,87,78,66,30.54,30.36,30.18,10,9,2,21,9,26,0.03,8,Snow,284
2012-11-14,36,32,26,23,20,18,81,66,59,30.61,30.54,30.47,10,10,10,10,4,,0.00,5,,60
2012-11-15,44,34,24,25,21,20,88,66,40,30.47,30.39,30.33,10,10,10,7,2,,0.00,0,,132
2012-11-16,44,35,26,29,25,19,82,69,51,30.54,30.44,30.34,10,10,10,8,1,,0.00,0,,339
2012-11-17,48,37,26,32,26,23,93,77,41,30.67,30.59,30.49,10,6,0,5,1,,0.00,0,Fog,96
2012-11-18,50,39,28,30,27,24,89,67,38,30.65,30.59,30.51,10,10,9,9,4,,0.00,0,,134
2012-11-19,48,38,28,33,29,26,93,76,49,30.50,30.40,30.27,10,8,3,5,3,,0.00,2,,170
2012-11-20,48,40,32,32,28,23,82,67,40,30.24,30.19,30.14,10,10,10,5,1,,0.00,1,,4
2012-11-21,54,42,30,33,24,13,89,56,24,30.26,30.23,30.17,10,10,5,4,1,,0.00,0,,20
2012-11-22,57,46,36,30,24,20,60,43,28,30.26,30.17,30.02,10,10,10,10,3,,0.00,0,,207
2012-11-23,50,40,28,41,30,21,87,67,44,30.01,29.77,29.67,10,9,2,30,12,39,0.01,6,Rain-Snow,242
2012-11-24,30,28,26,25,20,16,86,74,64,29.96,29.83,29.74,10,5,0,25,19,37,0.05,8,Fog-Snow,301
2012-11-25,30,28,26,23,20,16,81,75,66,29.94,29.86,29.78,10,6,2,16,11,22,0.01,8,Snow,248
2012-11-26,33,30,27,24,22,20,76,69,59,30.24,30.12,29.92,10,10,10,15,9,26,0.00,7,,283
2012-11-27,30,28,27,23,20,16,81,71,59,30.30,30.24,30.16,10,9,4,9,3,,0.00,8,Snow,317
2012-11-28,32,29,26,23,20,16,80,69,61,30.28,30.21,30.11,10,8,1,14,7,25,0.00,8,Snow,260
2012-11-29,43,35,27,24,20,16,78,58,34,30.32,30.28,30.20,10,10,8,14,8,22,0.00,2,,250
2012-11-30,37,34,30,26,22,18,75,62,50,30.37,30.32,30.29,10,10,9,9,5,,0.00,6,,132